createdAt,value
2018-05-14T00:02:23.546Z,98659.30
2018-05-14T00:04:52.983Z,98665.91
2018-05-14T00:07:22.382Z,98669.00
2018-05-14T00:09:51.152Z,98670.44
2018-05-14T00:12:20.397Z,98668.28
2018-05-14T00:14:50.774Z,98664.64
2018-05-14T00:17:20.142Z,98664.03
2018-05-14T00:19:49.260Z,98669.05
2018-05-14T00:22:19.236Z,98670.71
2018-05-14T00:24:48.562Z,98671.64
2018-05-14T00:27:18.534Z,98682.18
2018-05-14T00:29:47.872Z,98674.55
2018-05-14T00:32:17.555Z,98679.42
2018-05-14T00:34:47.172Z,98681.42
2018-05-14T00:37:16.296Z,98677.59
2018-05-14T00:39:45.740Z,98682.23
2018-05-14T00:42:15.506Z,98683.37
2018-05-14T00:44:45.889Z,98682.52
2018-05-14T00:47:14.988Z,98688.13
2018-05-14T00:49:43.932Z,98691.41
2018-05-14T00:52:13.286Z,98697.00
2018-05-14T00:54:53.837Z,98698.02
2018-05-14T00:57:24.174Z,98700.19
2018-05-14T00:59:54.873Z,98704.82
2018-05-14T01:02:24.186Z,98704.92
2018-05-14T01:04:53.982Z,98707.19
2018-05-14T01:07:23.641Z,98710.45
2018-05-14T01:09:52.387Z,98720.03
2018-05-14T01:12:21.644Z,98719.19
2018-05-14T01:14:51.320Z,98723.39
2018-05-14T01:17:22.089Z,98714.83
2018-05-14T01:19:51.483Z,98719.92
2018-05-14T01:22:20.969Z,98721.95
2018-05-14T01:24:55.966Z,98727.72
2018-05-14T01:27:25.437Z,98731.09
2018-05-14T01:29:54.690Z,98733.88
2018-05-14T01:32:24.010Z,98730.81
2018-05-14T01:34:53.215Z,98736.06
2018-05-14T01:37:23.141Z,98735.77
2018-05-14T01:39:53.003Z,98741.38
2018-05-14T01:42:22.682Z,98741.25
2018-05-14T01:44:51.339Z,98748.76
2018-05-14T01:47:20.465Z,98753.57
2018-05-14T01:49:50.142Z,98754.40
2018-05-14T01:52:19.499Z,98752.16
2018-05-14T01:54:48.829Z,98760.92
2018-05-14T01:57:18.722Z,98766.27
2018-05-14T01:59:47.998Z,98775.77
2018-05-14T02:02:18.773Z,98779.27
2018-05-14T02:04:48.407Z,98775.30
2018-05-14T02:07:17.926Z,98780.36
2018-05-14T02:09:46.943Z,98786.08
2018-05-14T02:12:16.221Z,98785.16
2018-05-14T02:14:45.587Z,98795.15
2018-05-14T02:17:14.613Z,98797.94
2018-05-14T02:19:43.323Z,98801.87
2018-05-14T02:22:13.170Z,98804.96
2018-05-14T02:24:42.264Z,98804.45
2018-05-14T02:27:12.028Z,98804.64
2018-05-14T02:29:41.455Z,98799.48
2018-05-14T02:32:10.771Z,98808.22
2018-05-14T02:34:40.286Z,98808.94
2018-05-14T02:37:10.182Z,98823.75
2018-05-14T02:39:39.796Z,98827.03
2018-05-14T02:42:08.928Z,98825.49
2018-05-14T02:44:38.337Z,98837.20
2018-05-14T02:47:07.211Z,98839.79
2018-05-14T02:49:36.832Z,98840.70
2018-05-14T02:52:05.706Z,98835.11
2018-05-14T02:54:35.128Z,98838.66
2018-05-14T02:57:04.752Z,98839.05
2018-05-14T02:59:33.350Z,98840.53
2018-05-14T03:02:01.662Z,98840.90
2018-05-14T03:04:30.918Z,98844.13
2018-05-14T03:07:00.791Z,98835.03
2018-05-14T03:09:29.921Z,98840.13
2018-05-14T03:11:59.553Z,98852.38
2018-05-14T03:14:29.497Z,98855.56
2018-05-14T03:16:58.836Z,98855.52
2018-05-14T03:19:28.076Z,98852.91
2018-05-14T03:21:56.983Z,98855.81
2018-05-14T03:24:25.670Z,98855.66
2018-05-14T03:26:54.914Z,98856.97
2018-05-14T03:29:24.164Z,98852.33
2018-05-14T03:31:54.017Z,98851.84
2018-05-14T03:34:24.081Z,98849.08
2018-05-14T03:36:52.904Z,98855.49
2018-05-14T03:39:22.396Z,98852.88
2018-05-14T03:41:51.292Z,98867.39
2018-05-14T03:44:20.540Z,98878.48
2018-05-14T03:46:49.595Z,98873.29
2018-05-14T03:49:18.537Z,98875.00
2018-05-14T03:51:47.765Z,98867.98
2018-05-14T03:54:17.753Z,98861.56
2018-05-14T03:56:47.159Z,98854.59
2018-05-14T03:59:27.633Z,98862.78
2018-05-14T04:02:18.457Z,98864.97
2018-05-14T04:04:59.314Z,98868.11
2018-05-14T04:07:28.756Z,98862.71
2018-05-14T04:09:59.529Z,98865.34
2018-05-14T04:12:28.584Z,98861.84
2018-05-14T04:14:58.851Z,98860.27
2018-05-14T04:17:27.794Z,98865.97
2018-05-14T04:19:57.169Z,98870.08
2018-05-14T04:22:26.461Z,98874.91
2018-05-14T04:24:55.665Z,98872.64
2018-05-14T04:27:24.405Z,98874.53
2018-05-14T04:29:54.066Z,98879.02
2018-05-14T04:32:22.980Z,98880.87
2018-05-14T04:34:51.869Z,98885.12
2018-05-14T04:37:21.400Z,98878.97
2018-05-14T04:39:50.754Z,98883.09
2018-05-14T04:42:20.475Z,98884.78
2018-05-14T04:44:49.268Z,98888.37
2018-05-14T04:47:18.564Z,98886.23
2018-05-14T04:49:47.780Z,98877.44
2018-05-14T04:52:17.680Z,98887.37
2018-05-14T04:54:47.439Z,98888.81
2018-05-14T04:57:16.785Z,98884.25
2018-05-14T04:59:46.344Z,98887.03
2018-05-14T05:02:15.094Z,98887.05
2018-05-14T05:04:43.898Z,98895.98
2018-05-14T05:07:13.144Z,98889.80
2018-05-14T05:09:42.894Z,98891.07
2018-05-14T05:12:12.268Z,98893.67
2018-05-14T05:14:41.629Z,98901.87
2018-05-14T05:17:11.554Z,98891.14
2018-05-14T05:19:41.101Z,98875.92
2018-05-14T05:22:11.116Z,98869.04
2018-05-14T05:24:39.970Z,98869.59
2018-05-14T05:27:09.633Z,98862.25
2018-05-14T05:29:38.966Z,98867.44
2018-05-14T05:32:08.715Z,98868.32
2018-05-14T05:34:38.206Z,98865.46
2018-05-14T05:37:07.078Z,98864.28
2018-05-14T05:39:36.639Z,98854.77
2018-05-14T05:42:05.904Z,98850.06
2018-05-14T05:44:34.909Z,98850.16
2018-05-14T05:47:04.305Z,98852.08
2018-05-14T05:49:33.611Z,98845.97
2018-05-14T05:52:03.107Z,98845.03
2018-05-14T05:54:32.845Z,98850.41
2018-05-14T05:57:02.441Z,98850.31
2018-05-14T05:59:32.305Z,98834.20
2018-05-14T06:02:01.447Z,98837.41
2018-05-14T06:04:30.754Z,98838.48
2018-05-14T06:06:59.840Z,98838.74
2018-05-14T06:09:28.637Z,98842.56
2018-05-14T06:11:57.590Z,98837.95
2018-05-14T06:14:28.036Z,98829.73
2018-05-14T06:16:57.007Z,98828.45
2018-05-14T06:19:26.637Z,98830.17
2018-05-14T06:27:04.805Z,98828.03
2018-05-14T06:29:33.813Z,98823.56
2018-05-14T06:32:04.259Z,98818.66
2018-05-14T06:34:33.700Z,98815.77
2018-05-14T06:37:03.074Z,98812.39
2018-05-14T06:39:33.445Z,98814.97
2018-05-14T06:42:03.890Z,98809.94
2018-05-14T06:44:33.747Z,98803.42
2018-05-14T06:47:06.915Z,98807.07
2018-05-14T06:49:36.268Z,98810.17
2018-05-14T06:54:39.131Z,98807.22
2018-05-14T06:57:08.551Z,98802.31
2018-05-14T06:59:37.999Z,98807.91
2018-05-14T07:02:07.759Z,98801.30
2018-05-14T07:04:37.342Z,98797.42
2018-05-14T07:07:06.773Z,98788.55
2018-05-14T07:09:36.315Z,98793.40
2018-05-14T07:14:40.769Z,98789.89
2018-05-14T07:17:09.925Z,98787.63
2018-05-14T07:19:39.576Z,98793.20
2018-05-14T07:22:08.594Z,98786.19
2018-05-14T07:24:37.926Z,98787.63
2018-05-14T07:27:08.036Z,98782.16
2018-05-14T07:29:37.097Z,98778.56
2018-05-14T07:32:06.167Z,98769.73
2018-05-14T07:34:34.962Z,98769.47
2018-05-14T07:37:03.641Z,98764.44
2018-05-14T07:39:32.772Z,98759.27
2018-05-14T07:42:01.762Z,98755.23
2018-05-14T07:44:30.910Z,98754.75
2018-05-14T07:47:00.483Z,98753.02
2018-05-14T07:49:30.082Z,98730.15
2018-05-14T07:51:59.489Z,98727.13
2018-05-14T07:54:28.610Z,98711.88
2018-05-14T07:56:57.831Z,98713.86
2018-05-14T07:59:27.685Z,98715.84
2018-05-14T08:01:57.217Z,98709.23
2018-05-14T08:04:26.228Z,98712.73
2018-05-14T08:06:55.846Z,98708.00
2018-05-14T08:09:24.963Z,98706.44
2018-05-14T08:11:54.351Z,98697.80
2018-05-14T08:14:23.249Z,98689.31
2018-05-14T08:16:53.402Z,98690.27
2018-05-14T08:19:23.218Z,98691.58
2018-05-14T08:21:52.361Z,98683.99
2018-05-14T08:24:21.057Z,98692.70
2018-05-14T08:26:50.595Z,98684.06
2018-05-14T08:29:20.266Z,98671.70
2018-05-14T08:31:49.337Z,98669.63
2018-05-14T08:34:18.756Z,98663.70
2018-05-14T08:36:48.935Z,98654.98
2018-05-14T08:39:18.572Z,98655.91
2018-05-14T08:41:47.798Z,98644.13
2018-05-14T08:44:17.212Z,98642.59
2018-05-14T08:46:47.372Z,98632.19
2018-05-14T08:49:17.807Z,98636.11
2018-05-14T08:51:47.817Z,98638.52
2018-05-14T08:54:17.091Z,98633.98
2018-05-14T08:56:46.449Z,98626.13
2018-05-14T08:59:15.841Z,98629.14
2018-05-14T09:01:45.714Z,98612.70
2018-05-14T09:04:15.452Z,98613.23
2018-05-14T09:06:45.368Z,98609.13
2018-05-14T09:09:14.244Z,98600.06
2018-05-14T09:11:43.167Z,98593.95
2018-05-14T09:14:13.344Z,98596.86
2018-05-14T09:16:43.473Z,98596.03
2018-05-14T09:19:13.659Z,98591.08
2018-05-14T09:21:43.230Z,98580.89
2018-05-14T09:24:13.265Z,98576.44
2018-05-14T09:26:42.761Z,98578.70
2018-05-14T09:29:13.109Z,98570.37
2018-05-14T09:31:42.949Z,98571.52
2018-05-14T09:34:23.670Z,98573.48
2018-05-14T09:36:53.639Z,98573.26
2018-05-14T09:39:23.274Z,98567.06
2018-05-14T09:41:53.346Z,98566.27
2018-05-14T09:44:22.926Z,98562.94
2018-05-14T09:46:52.888Z,98567.59
2018-05-14T09:49:22.741Z,98562.23
2018-05-14T09:51:52.217Z,98555.21
2018-05-14T09:54:23.810Z,98559.13
2018-05-14T09:56:54.450Z,98551.17
2018-05-14T09:59:23.338Z,98551.05
2018-05-14T10:01:53.245Z,98543.23
2018-05-14T10:04:22.861Z,98546.95
2018-05-14T10:06:52.198Z,98548.62
2018-05-14T10:09:22.120Z,98551.30
2018-05-14T10:11:51.364Z,98546.67
2018-05-14T10:14:20.920Z,98538.53
2018-05-14T10:16:50.638Z,98537.93
2018-05-14T10:19:20.310Z,98542.06
2018-05-14T10:21:49.935Z,98535.38
2018-05-14T10:24:20.257Z,98538.06
2018-05-14T10:26:49.840Z,98529.66
2018-05-14T10:29:18.811Z,98527.89
2018-05-14T10:31:48.027Z,98529.32
2018-05-14T10:34:18.027Z,98528.27
2018-05-14T10:36:47.425Z,98519.20
2018-05-14T10:39:17.531Z,98514.88
2018-05-14T10:41:48.568Z,98506.20
2018-05-14T10:44:18.163Z,98497.56
2018-05-14T10:46:47.706Z,98504.57
2018-05-14T10:49:18.420Z,98506.22
2018-05-14T10:51:49.031Z,98503.42
2018-05-14T10:54:19.762Z,98501.52
2018-05-14T10:56:49.295Z,98501.17
2018-05-14T10:59:18.524Z,98500.98
2018-05-14T11:01:48.173Z,98503.47
2018-05-14T11:04:17.720Z,98496.14
2018-05-14T11:06:47.900Z,98495.95
2018-05-14T11:09:18.012Z,98496.36
2018-05-14T11:11:47.136Z,98490.37
2018-05-14T11:14:17.414Z,98495.61
2018-05-14T11:16:46.799Z,98490.58
2018-05-14T11:19:15.619Z,98488.91
2018-05-14T11:21:45.296Z,98496.02
2018-05-14T11:24:14.107Z,98481.77
2018-05-14T11:26:43.722Z,98476.11
2018-05-14T11:29:13.111Z,98476.61
2018-05-14T11:31:43.108Z,98475.89
2018-05-14T11:34:13.016Z,98476.50
2018-05-14T11:36:43.538Z,98479.08
2018-05-14T11:39:12.713Z,98476.59
2018-05-14T11:41:42.205Z,98479.59
2018-05-14T11:44:12.030Z,98473.25
2018-05-14T11:46:41.897Z,98478.20
2018-05-14T11:49:16.395Z,98476.66
2018-05-14T11:51:45.482Z,98481.71
2018-05-14T11:54:14.338Z,98474.79
2018-05-14T11:56:44.167Z,98473.66
2018-05-14T12:10:36.469Z,98482.22
2018-05-14T12:13:05.680Z,98476.25
2018-05-14T12:15:34.702Z,98481.61
2018-05-14T12:18:04.782Z,98483.94
2018-05-14T12:20:34.588Z,98486.20
2018-05-14T12:23:04.469Z,98486.30
2018-05-14T12:25:34.546Z,98489.91
2018-05-14T12:28:03.751Z,98485.94
2018-05-14T12:30:33.819Z,98482.84
2018-05-14T12:33:02.789Z,98481.88
2018-05-14T12:35:32.331Z,98483.52
2018-05-14T12:38:02.489Z,98482.08
2018-05-14T12:40:32.525Z,98484.18
2018-05-14T12:43:01.671Z,98483.87
2018-05-14T12:45:31.411Z,98481.38
2018-05-14T12:48:00.669Z,98482.72
2018-05-14T12:50:29.836Z,98480.03
2018-05-14T12:52:58.996Z,98487.88
2018-05-14T12:55:28.526Z,98493.86
2018-05-14T12:57:58.222Z,98490.17
2018-05-14T13:00:28.518Z,98488.59
2018-05-14T13:02:59.119Z,98492.11
2018-05-14T13:05:29.132Z,98491.00
2018-05-14T13:07:59.136Z,98484.98
2018-05-14T13:10:28.988Z,98492.75
2018-05-14T13:12:58.222Z,98488.80
2018-05-14T13:15:27.744Z,98494.45
2018-05-14T13:17:57.681Z,98490.95
2018-05-14T13:20:27.002Z,98486.93
2018-05-14T13:22:56.530Z,98489.30
2018-05-14T13:25:26.675Z,98490.13
2018-05-14T13:27:56.138Z,98489.81
2018-05-14T13:30:25.191Z,98482.73
2018-05-14T13:32:54.525Z,98486.30
2018-05-14T13:35:23.680Z,98487.08
2018-05-14T13:37:53.288Z,98488.27
2018-05-14T13:40:22.675Z,98487.69
2018-05-14T13:42:51.373Z,98496.05
2018-05-14T13:45:20.189Z,98495.49
2018-05-14T13:47:48.973Z,98497.25
2018-05-14T13:50:17.570Z,98504.98
2018-05-14T13:52:46.154Z,98501.38
2018-05-14T13:55:15.082Z,98509.11
2018-05-14T13:57:44.511Z,98512.93
2018-05-14T14:00:14.209Z,98509.32
2018-05-14T14:02:43.873Z,98505.50
2018-05-14T14:05:13.197Z,98512.12
2018-05-14T14:07:42.410Z,98517.27
2018-05-14T14:10:11.975Z,98525.71
2018-05-14T14:12:41.175Z,98523.97
2018-05-14T14:15:10.215Z,98518.09
2018-05-14T14:17:39.636Z,98519.42
2018-05-14T14:20:09.104Z,98517.47
2018-05-14T14:22:38.881Z,98524.91
2018-05-14T14:25:07.883Z,98531.50
2018-05-14T14:27:37.647Z,98532.00
2018-05-14T14:30:07.010Z,98542.04
2018-05-14T14:32:37.013Z,98533.97
2018-05-14T14:35:06.652Z,98530.98
2018-05-14T14:37:36.475Z,98534.29
2018-05-14T14:40:05.689Z,98538.09
2018-05-14T14:42:34.368Z,98543.98
2018-05-14T14:45:03.580Z,98552.23
2018-05-14T14:47:33.134Z,98551.10
2018-05-14T14:50:01.914Z,98564.91
2018-05-14T14:52:31.181Z,98571.22
2018-05-14T14:55:00.805Z,98574.83
2018-05-14T14:57:31.110Z,98583.06
2018-05-14T15:00:01.454Z,98581.94
2018-05-14T15:02:30.164Z,98574.30
2018-05-14T15:04:59.690Z,98574.52
2018-05-14T15:07:28.471Z,98574.52
2018-05-14T15:09:57.984Z,98577.93
2018-05-14T15:12:26.488Z,98574.10
2018-05-14T15:14:56.123Z,98578.03
2018-05-14T15:17:26.170Z,98573.57
2018-05-14T15:19:55.677Z,98579.12
2018-05-14T15:22:24.728Z,98584.80
2018-05-14T15:24:54.504Z,98589.58
2018-05-14T15:27:23.817Z,98596.04
2018-05-14T15:29:53.116Z,98600.91
2018-05-14T15:32:22.881Z,98599.04
2018-05-14T15:34:51.796Z,98595.23
2018-05-14T15:37:21.875Z,98603.48
2018-05-14T15:39:50.909Z,98604.00
2018-05-14T15:42:19.941Z,98602.43
2018-05-14T15:44:48.789Z,98608.34
2018-05-14T15:47:17.982Z,98608.70
2018-05-14T15:49:47.681Z,98617.99
2018-05-14T15:52:18.929Z,98619.84
2018-05-14T15:54:48.621Z,98624.19
2018-05-14T15:57:17.644Z,98628.41
2018-05-14T15:59:47.313Z,98633.53
2018-05-14T16:02:16.607Z,98633.04
2018-05-14T16:04:46.431Z,98642.36
2018-05-14T16:07:15.553Z,98637.61
2018-05-14T16:09:45.064Z,98641.97
2018-05-14T16:12:14.691Z,98645.69
2018-05-14T16:14:44.524Z,98638.55
2018-05-14T16:17:14.208Z,98642.39
2018-05-14T16:19:44.293Z,98642.06
2018-05-14T16:22:13.887Z,98632.80
2018-05-14T16:24:42.597Z,98638.05
2018-05-14T16:27:12.355Z,98638.88
2018-05-14T16:29:41.709Z,98636.30
2018-05-14T16:32:11.961Z,98636.09
2018-05-14T16:34:41.352Z,98637.86
2018-05-14T16:37:11.073Z,98639.73
2018-05-14T16:39:40.979Z,98644.37
2018-05-14T16:42:10.386Z,98644.48
2018-05-14T16:44:39.403Z,98644.94
2018-05-14T16:47:08.655Z,98643.28
2018-05-14T16:49:38.130Z,98643.86
2018-05-14T16:52:07.699Z,98639.30
2018-05-14T16:54:37.275Z,98633.75
2018-05-14T16:57:06.510Z,98631.89
2018-05-14T16:59:35.975Z,98628.30
2018-05-14T17:02:05.403Z,98627.44
2018-05-14T17:04:35.355Z,98626.71
2018-05-14T17:07:05.023Z,98633.32
2018-05-14T17:09:34.659Z,98637.45
2018-05-14T17:12:03.889Z,98646.41
2018-05-14T17:14:32.994Z,98650.24
2018-05-14T17:17:02.371Z,98654.80
2018-05-14T17:19:31.808Z,98661.08
2018-05-14T17:22:00.625Z,98666.16
2018-05-14T17:24:29.906Z,98665.89
2018-05-14T17:26:59.821Z,98671.45
2018-05-14T17:29:29.351Z,98672.70
2018-05-14T17:31:58.817Z,98671.97
2018-05-14T17:34:28.568Z,98678.58
2018-05-14T17:36:58.151Z,98677.55
2018-05-14T17:39:26.940Z,98684.58
2018-05-14T17:41:56.019Z,98688.38
2018-05-14T17:44:25.166Z,98683.94
2018-05-14T17:46:54.270Z,98685.95
2018-05-14T17:49:23.564Z,98684.30
2018-05-14T17:51:53.016Z,98675.94
2018-05-14T17:54:22.503Z,98672.12
2018-05-14T17:56:52.678Z,98670.06
2018-05-14T17:59:22.293Z,98661.61
2018-05-14T18:01:51.130Z,98660.76
2018-05-14T18:04:20.789Z,98654.27
2018-05-14T18:06:50.135Z,98646.92
2018-05-14T18:09:19.679Z,98648.07
2018-05-14T18:11:49.923Z,98645.52
2018-05-14T18:14:19.271Z,98652.72
2018-05-14T18:16:49.065Z,98646.34
2018-05-14T18:19:18.908Z,98649.02
2018-05-14T18:21:48.726Z,98648.41
2018-05-14T18:24:17.481Z,98652.31
2018-05-14T18:26:47.171Z,98650.88
2018-05-14T18:29:21.608Z,98648.91
2018-05-14T18:31:57.640Z,98647.25
2018-05-14T18:34:34.670Z,98642.30
2018-05-14T18:37:04.085Z,98630.94
2018-05-14T18:39:34.270Z,98623.39
2018-05-14T18:42:03.763Z,98634.84
2018-05-14T18:44:34.486Z,98643.81
2018-05-14T18:47:03.548Z,98641.35
2018-05-14T18:49:33.233Z,98661.56
2018-05-14T18:52:03.401Z,98668.59
2018-05-14T18:54:33.260Z,98685.70
2018-05-14T18:57:02.673Z,98698.70
2018-05-14T18:59:31.880Z,98691.48
2018-05-14T19:02:01.101Z,98677.48
2018-05-14T19:04:30.641Z,98669.83
2018-05-14T19:07:00.013Z,98657.05
2018-05-14T19:09:28.885Z,98660.25
2018-05-14T19:11:58.360Z,98671.91
2018-05-14T19:14:27.985Z,98670.03
2018-05-14T19:17:04.226Z,98663.32
2018-05-14T19:19:48.894Z,98654.64
2018-05-14T19:22:23.634Z,98653.22
2018-05-14T19:24:53.420Z,98668.42
2018-05-14T19:27:22.938Z,98667.87
2018-05-14T19:29:52.160Z,98670.58
2018-05-14T19:32:21.139Z,98653.68
2018-05-14T19:34:58.484Z,98635.54
2018-05-14T19:37:27.771Z,98632.14
2018-05-14T19:40:02.383Z,98631.41
2018-05-14T19:42:32.123Z,98624.00
2018-05-14T19:45:01.456Z,98624.85
2018-05-14T19:47:30.737Z,98609.27
2018-05-14T19:50:00.323Z,98615.77
2018-05-14T19:52:30.038Z,98619.69
2018-05-14T19:54:59.250Z,98615.88
2018-05-14T19:57:28.214Z,98606.79
2018-05-14T19:59:57.803Z,98603.80
2018-05-14T20:02:26.845Z,98604.50
2018-05-14T20:04:56.247Z,98598.84
2018-05-14T20:07:25.285Z,98594.70
2018-05-14T20:09:54.890Z,98594.30
2018-05-14T20:12:24.085Z,98599.95
2018-05-14T20:14:53.849Z,98599.55
2018-05-14T20:17:23.068Z,98584.68
2018-05-14T20:19:53.115Z,98585.91
2018-05-14T20:22:22.001Z,98589.92
2018-05-14T20:24:51.715Z,98591.36
2018-05-14T20:27:21.065Z,98589.73
2018-05-14T20:29:50.225Z,98584.37
2018-05-14T20:32:19.381Z,98581.56
2018-05-14T20:34:48.434Z,98579.01
2018-05-14T20:37:18.462Z,98579.70
2018-05-14T20:39:48.410Z,98574.37
2018-05-14T20:42:17.210Z,98577.78
2018-05-14T20:44:46.092Z,98576.31
2018-05-14T20:47:15.477Z,98561.79
2018-05-14T20:49:44.504Z,98556.11
2018-05-14T20:52:13.955Z,98547.02
2018-05-14T20:54:43.747Z,98547.45
2018-05-14T20:57:13.376Z,98546.92
2018-05-14T20:59:42.880Z,98540.83
2018-05-14T21:02:12.163Z,98551.03
2018-05-14T21:04:42.107Z,98544.34
2018-05-14T21:07:11.126Z,98543.67
2018-05-14T21:09:40.320Z,98533.06
2018-05-14T21:12:09.748Z,98544.17
2018-05-14T21:14:39.569Z,98541.78
2018-05-14T21:17:08.671Z,98543.53
2018-05-14T21:19:38.230Z,98545.91
2018-05-14T21:22:07.854Z,98554.04
2018-05-14T21:24:37.212Z,98546.00
2018-05-14T21:27:07.024Z,98544.45
2018-05-14T21:29:36.481Z,98549.09
2018-05-14T21:32:05.655Z,98545.91
2018-05-14T21:34:35.277Z,98541.18
2018-05-14T21:37:04.795Z,98539.30
2018-05-14T21:39:34.714Z,98535.06
2018-05-14T21:42:04.339Z,98529.39
2018-05-14T21:44:33.859Z,98531.78
2018-05-14T21:47:03.006Z,98527.55
2018-05-14T21:49:32.923Z,98518.25
2018-05-14T21:52:02.258Z,98521.66
2018-05-14T21:54:31.151Z,98523.77
2018-05-14T21:57:00.594Z,98523.48
2018-05-14T21:59:29.739Z,98527.28
2018-05-14T22:01:59.431Z,98525.00
2018-05-14T22:04:28.459Z,98522.22
2018-05-14T22:06:57.516Z,98526.62
2018-05-14T22:09:26.847Z,98526.02
2018-05-14T22:11:56.129Z,98531.22
2018-05-14T22:14:25.581Z,98530.74
2018-05-14T22:16:54.555Z,98535.95
2018-05-14T22:19:24.349Z,98535.05
2018-05-14T22:21:53.553Z,98540.63
2018-05-14T22:24:23.452Z,98542.86
2018-05-14T22:26:52.877Z,98550.42
2018-05-14T22:29:22.446Z,98555.14
2018-05-14T22:31:51.823Z,98552.81
2018-05-14T22:34:20.683Z,98565.86
2018-05-14T22:36:50.518Z,98568.63
2018-05-14T22:39:20.144Z,98576.09
2018-05-14T22:41:49.622Z,98576.31
2018-05-14T22:44:19.283Z,98576.89
2018-05-14T22:46:48.764Z,98570.31
2018-05-14T22:49:18.712Z,98571.24
2018-05-14T22:51:48.728Z,98570.64
2018-05-14T22:54:29.247Z,98568.12
2018-05-14T22:56:58.815Z,98564.23
2018-05-14T22:59:27.426Z,98567.03
2018-05-14T23:01:56.862Z,98565.89
2018-05-14T23:04:26.165Z,98555.94
2018-05-14T23:06:55.478Z,98562.38
2018-05-14T23:09:25.396Z,98553.23
2018-05-14T23:11:54.545Z,98550.14
2018-05-14T23:14:23.912Z,98549.24
2018-05-14T23:16:52.790Z,98549.17
2018-05-14T23:19:21.635Z,98554.12
2018-05-14T23:21:51.245Z,98553.86
2018-05-14T23:24:20.495Z,98555.33
2018-05-14T23:26:50.636Z,98550.42
2018-05-14T23:29:19.664Z,98555.30
2018-05-14T23:31:49.063Z,98549.08
2018-05-14T23:34:17.997Z,98551.00
2018-05-14T23:36:47.557Z,98562.83
2018-05-14T23:39:17.404Z,98569.39
2018-05-14T23:41:46.890Z,98571.88
2018-05-14T23:44:16.853Z,98576.83
2018-05-14T23:46:46.269Z,98571.47
2018-05-14T23:49:16.173Z,98568.28
2018-05-14T23:51:45.592Z,98564.00
2018-05-14T23:54:15.191Z,98567.70
2018-05-14T23:56:44.821Z,98568.75
2018-05-14T23:59:14.251Z,98574.27
